createdAt,value
2023-05-25T00:00:20.765Z,2.92
2023-05-25T00:02:24.526Z,2.92
2023-05-25T00:04:30.371Z,3.53
2023-05-25T00:06:37.301Z,3.33
2023-05-25T00:08:41.079Z,3.45
2023-05-25T00:10:43.654Z,3.42
2023-05-25T00:12:46.490Z,2.85
2023-05-25T00:14:50.593Z,3.40
2023-05-25T00:16:53.284Z,2.80
2023-05-25T00:18:57.580Z,3.38
2023-05-25T00:21:06.719Z,3.40
2023-05-25T00:23:09.383Z,3.17
2023-05-25T00:25:12.091Z,3.20
2023-05-25T00:27:14.655Z,3.50
2023-05-25T00:29:17.277Z,3.00
2023-05-25T00:31:21.615Z,3.10
2023-05-25T00:33:24.388Z,2.95
2023-05-25T00:35:27.439Z,3.30
2023-05-25T00:37:30.047Z,3.13
2023-05-25T00:39:32.718Z,3.60
2023-05-25T00:41:36.589Z,3.08
2023-05-25T00:43:39.370Z,3.03
2023-05-25T00:45:42.092Z,3.40
2023-05-25T00:47:46.743Z,3.50
2023-05-25T00:49:49.424Z,3.83
2023-05-25T00:51:53.814Z,3.65
2023-05-25T00:53:56.453Z,3.35
2023-05-25T00:56:06.096Z,3.40
2023-05-25T00:58:09.529Z,3.40
2023-05-25T01:00:13.909Z,3.47
2023-05-25T01:02:19.331Z,3.58
2023-05-25T01:04:24.378Z,3.60
2023-05-25T01:06:32.100Z,3.40
2023-05-25T01:08:36.651Z,3.53
2023-05-25T01:10:40.468Z,2.80
2023-05-25T01:12:45.397Z,3.13
2023-05-25T01:14:49.208Z,3.30
2023-05-25T01:16:53.467Z,3.67
2023-05-25T01:18:56.466Z,3.45
2023-05-25T01:21:13.358Z,3.78
2023-05-25T01:23:17.633Z,3.60
2023-05-25T01:25:25.239Z,3.40
2023-05-25T01:27:36.577Z,3.25
2023-05-25T01:29:43.340Z,3.35
2023-05-25T01:31:47.199Z,3.58
2023-05-25T01:33:51.475Z,3.63
2023-05-25T01:35:54.459Z,3.70
2023-05-25T01:37:59.987Z,4.05
2023-05-25T01:40:02.639Z,3.97
2023-05-25T01:42:05.723Z,4.38
2023-05-25T01:44:09.079Z,3.13
2023-05-25T01:46:19.412Z,4.28
2023-05-25T01:48:31.372Z,3.60
2023-05-25T01:52:45.767Z,3.80
2023-05-25T01:54:54.310Z,3.33
2023-05-25T01:57:02.329Z,3.42
2023-05-25T01:59:08.211Z,3.58
2023-05-25T02:01:11.661Z,4.20
2023-05-25T02:03:14.414Z,3.85
2023-05-25T02:05:17.170Z,3.83
2023-05-25T02:07:19.743Z,3.65
2023-05-25T02:09:22.625Z,3.65
2023-05-25T02:11:27.741Z,3.90
2023-05-25T02:13:30.384Z,3.97
2023-05-25T02:15:34.524Z,3.90
2023-05-25T02:17:37.741Z,4.13
2023-05-25T02:19:40.390Z,4.15
2023-05-25T02:21:43.137Z,3.55
2023-05-25T02:23:47.778Z,4.68
2023-05-25T02:25:51.691Z,4.03
2023-05-25T02:27:55.832Z,4.15
2023-05-25T02:29:58.495Z,4.22
2023-05-25T02:32:01.107Z,3.88
2023-05-25T02:34:04.064Z,4.32
2023-05-25T02:36:07.197Z,3.92
2023-05-25T02:38:09.809Z,3.58
2023-05-25T02:40:14.099Z,4.20
2023-05-25T02:42:16.726Z,4.00
2023-05-25T02:44:20.657Z,4.18
2023-05-25T02:46:23.694Z,4.13
2023-05-25T02:48:26.383Z,4.13
2023-05-25T02:50:29.021Z,4.05
2023-05-25T02:52:32.840Z,4.28
2023-05-25T02:54:36.250Z,4.20
2023-05-25T02:56:38.888Z,4.10
2023-05-25T02:58:42.523Z,3.35
2023-05-25T03:00:46.884Z,4.82
2023-05-25T03:02:49.931Z,3.85
2023-05-25T03:04:53.916Z,3.92
2023-05-25T03:06:56.701Z,4.30
2023-05-25T03:08:59.299Z,3.90
2023-05-25T03:11:01.954Z,4.20
2023-05-25T03:13:04.615Z,3.38
2023-05-25T03:15:09.231Z,4.00
2023-05-25T03:17:13.187Z,4.07
2023-05-25T03:19:16.134Z,4.13
2023-05-25T03:21:18.867Z,4.60
2023-05-25T03:23:21.591Z,4.53
2023-05-25T03:25:24.159Z,4.07
2023-05-25T03:27:26.803Z,4.10
2023-05-25T03:29:29.389Z,4.43
2023-05-25T03:31:32.017Z,5.03
2023-05-25T03:33:36.007Z,4.15
2023-05-25T03:35:38.660Z,4.60
2023-05-25T03:37:41.369Z,4.32
2023-05-25T03:39:44.005Z,4.40
2023-05-25T03:41:46.604Z,4.75
2023-05-25T03:43:49.239Z,4.57
2023-05-25T03:45:51.852Z,4.88
2023-05-25T03:47:54.579Z,5.30
2023-05-25T03:49:58.645Z,4.57
2023-05-25T03:52:01.526Z,5.05
2023-05-25T03:54:04.112Z,5.05
2023-05-25T03:56:07.614Z,4.78
2023-05-25T03:58:10.967Z,4.50
2023-05-25T04:00:15.556Z,4.30
2023-05-25T04:02:18.183Z,4.03
2023-05-25T04:04:21.987Z,4.30
2023-05-25T04:06:26.293Z,4.85
2023-05-25T04:08:30.138Z,4.80
2023-05-25T04:10:32.741Z,4.75
2023-05-25T04:12:36.254Z,4.53
2023-05-25T04:14:39.615Z,4.93
2023-05-25T04:16:42.362Z,4.57
2023-05-25T04:18:45.104Z,5.55
2023-05-25T04:20:47.912Z,5.00
2023-05-25T04:22:51.830Z,5.35
2023-05-25T04:24:54.707Z,5.30
2023-05-25T04:26:57.660Z,5.18
2023-05-25T04:29:01.926Z,5.32
2023-05-25T04:31:05.362Z,4.28
2023-05-25T04:33:08.176Z,4.28
2023-05-25T04:35:10.778Z,5.85
2023-05-25T04:37:13.461Z,4.97
2023-05-25T04:39:17.534Z,5.22
2023-05-25T04:41:20.177Z,5.03
2023-05-25T04:43:22.794Z,5.20
2023-05-25T04:45:25.958Z,5.57
2023-05-25T04:47:29.318Z,5.28
2023-05-25T04:49:32.089Z,5.63
2023-05-25T04:51:35.810Z,5.60
2023-05-25T04:53:38.584Z,5.22
2023-05-25T04:55:42.673Z,5.03
2023-05-25T04:57:45.493Z,4.78
2023-05-25T04:59:48.086Z,5.18
2023-05-25T05:01:53.623Z,5.80
2023-05-25T05:03:56.351Z,5.10
2023-05-25T05:05:59.045Z,5.40
2023-05-25T05:08:03.669Z,5.03
2023-05-25T05:10:07.229Z,6.03
2023-05-25T05:12:12.197Z,5.75
2023-05-25T05:14:14.919Z,5.70
2023-05-25T05:16:17.579Z,5.07
2023-05-25T05:18:20.273Z,5.20
2023-05-25T05:20:22.993Z,6.07
2023-05-25T05:22:25.615Z,5.97
2023-05-25T05:24:28.288Z,5.65
2023-05-25T05:26:34.274Z,5.40
2023-05-25T05:28:48.424Z,6.05
2023-05-25T05:30:51.084Z,5.60
2023-05-25T05:32:53.725Z,5.85
2023-05-25T05:34:56.356Z,5.30
2023-05-25T05:37:00.112Z,5.85
2023-05-25T05:39:03.470Z,5.45
2023-05-25T05:41:11.264Z,5.35
2023-05-25T05:43:15.217Z,6.03
2023-05-25T05:45:19.230Z,5.70
2023-05-25T05:47:22.299Z,5.78
2023-05-25T05:49:24.900Z,5.20
2023-05-25T05:51:27.529Z,6.05
2023-05-25T05:53:30.101Z,6.05
2023-05-25T05:55:32.948Z,6.25
2023-05-25T05:57:35.615Z,5.50
2023-05-25T05:59:38.296Z,5.68
2023-05-25T06:01:44.141Z,5.80
2023-05-25T06:03:47.514Z,6.10
2023-05-25T06:05:50.371Z,6.10
2023-05-25T06:07:53.002Z,6.40
2023-05-25T06:09:56.016Z,5.60
2023-05-25T06:11:58.614Z,5.53
2023-05-25T06:14:01.222Z,6.57
2023-05-25T06:16:03.894Z,6.18
2023-05-25T06:18:08.097Z,6.60
2023-05-25T06:20:11.821Z,6.35
2023-05-25T06:22:14.440Z,6.57
2023-05-25T06:24:17.167Z,6.38
2023-05-25T06:26:19.854Z,6.68
2023-05-25T06:28:22.442Z,6.25
2023-05-25T06:30:25.125Z,6.45
2023-05-25T06:32:27.780Z,6.72
2023-05-25T06:34:32.237Z,5.40
2023-05-25T06:36:34.995Z,6.65
2023-05-25T06:38:37.637Z,6.93
2023-05-25T06:40:40.288Z,6.50
2023-05-25T06:42:43.123Z,6.40
2023-05-25T06:44:45.686Z,7.20
2023-05-25T06:46:48.348Z,7.03
2023-05-25T06:48:51.033Z,6.60
2023-05-25T06:50:55.006Z,7.10
2023-05-25T06:52:59.024Z,7.07
2023-05-25T06:55:03.985Z,7.22
2023-05-25T06:57:07.007Z,6.60
2023-05-25T06:59:09.648Z,6.72
2023-05-25T07:01:12.236Z,6.78
2023-05-25T07:03:14.928Z,6.65
2023-05-25T07:05:17.644Z,6.63
2023-05-25T07:07:22.354Z,6.45
2023-05-25T07:09:24.957Z,7.22
2023-05-25T07:11:28.006Z,8.15
2023-05-25T07:13:30.721Z,7.25
2023-05-25T07:15:33.304Z,8.23
2023-05-25T07:17:36.528Z,7.88
2023-05-25T07:19:39.288Z,7.28
2023-05-25T07:21:41.986Z,7.57
2023-05-25T07:23:45.981Z,7.25
2023-05-25T07:25:48.614Z,7.30
2023-05-25T07:27:55.028Z,7.38
2023-05-25T07:29:57.659Z,7.22
2023-05-25T07:32:00.334Z,8.52
2023-05-25T07:34:03.212Z,7.53
2023-05-25T07:36:06.572Z,7.60
2023-05-25T07:38:10.618Z,7.82
2023-05-25T07:40:14.829Z,8.38
2023-05-25T07:42:20.867Z,7.93
2023-05-25T07:44:23.627Z,7.63
2023-05-25T07:46:26.542Z,7.75
2023-05-25T07:48:29.581Z,7.93
2023-05-25T07:50:32.135Z,8.35
2023-05-25T07:52:34.741Z,8.35
2023-05-25T07:54:40.191Z,7.45
2023-05-25T07:56:44.411Z,8.70
2023-05-25T07:58:47.108Z,8.63
2023-05-25T08:00:50.402Z,8.10
2023-05-25T08:02:53.188Z,8.38
2023-05-25T08:04:56.173Z,8.10
2023-05-25T08:06:58.795Z,8.05
2023-05-25T08:09:01.541Z,7.95
2023-05-25T08:11:04.237Z,8.93
2023-05-25T08:13:08.239Z,8.15
2023-05-25T08:15:11.097Z,8.82
2023-05-25T08:17:13.827Z,8.70
2023-05-25T08:19:16.480Z,8.88
2023-05-25T08:21:19.241Z,9.02
2023-05-25T08:23:21.977Z,8.40
2023-05-25T08:25:24.587Z,8.70
2023-05-25T08:27:27.297Z,9.10
2023-05-25T08:29:31.356Z,9.38
2023-05-25T08:31:34.250Z,7.90
2023-05-25T08:33:38.406Z,8.70
2023-05-25T08:35:42.950Z,8.32
2023-05-25T08:37:46.702Z,8.52
2023-05-25T08:39:49.286Z,9.00
2023-05-25T08:41:52.327Z,8.65
2023-05-25T08:43:55.137Z,9.05
2023-05-25T08:46:04.195Z,8.90
2023-05-25T08:48:13.825Z,8.18
2023-05-25T08:50:18.487Z,7.80
2023-05-25T08:52:23.316Z,8.35
2023-05-25T08:54:30.904Z,8.35
2023-05-25T08:56:36.883Z,8.70
2023-05-25T08:58:46.326Z,8.57
2023-05-25T09:00:55.691Z,8.43
2023-05-25T09:03:06.872Z,8.20
2023-05-25T09:05:09.974Z,8.27
2023-05-25T09:07:13.180Z,8.63
2023-05-25T09:09:15.867Z,8.48
2023-05-25T09:11:32.010Z,8.68
2023-05-25T09:13:39.685Z,9.07
2023-05-25T09:15:42.832Z,9.02
2023-05-25T09:17:45.719Z,8.63
2023-05-25T09:19:51.080Z,9.07
2023-05-25T09:22:03.257Z,8.63
2023-05-25T09:24:17.494Z,9.68
2023-05-25T09:26:20.760Z,8.68
2023-05-25T09:28:27.311Z,8.55
2023-05-25T09:30:32.863Z,8.95
2023-05-25T09:32:36.374Z,8.50
2023-05-25T09:34:39.067Z,8.20
2023-05-25T09:36:43.422Z,8.68
2023-05-25T09:38:46.873Z,9.73
2023-05-25T09:40:49.744Z,8.90
2023-05-25T09:42:52.465Z,9.15
2023-05-25T09:44:55.087Z,8.25
2023-05-25T09:46:57.719Z,9.75
2023-05-25T09:49:01.209Z,8.18
2023-05-25T09:51:03.946Z,9.30
2023-05-25T09:53:08.401Z,8.88
2023-05-25T09:55:12.552Z,9.05
2023-05-25T09:57:16.130Z,9.38
2023-05-25T09:59:18.814Z,9.23
2023-05-25T10:01:21.506Z,10.02
2023-05-25T10:03:24.287Z,9.27
2023-05-25T10:05:26.865Z,8.45
2023-05-25T10:07:30.165Z,7.85
2023-05-25T10:09:38.760Z,9.18
2023-05-25T10:11:44.466Z,8.52
2023-05-25T10:13:48.125Z,8.57
2023-05-25T10:15:54.375Z,9.80
2023-05-25T10:17:59.327Z,8.48
2023-05-25T10:20:02.742Z,9.25
2023-05-25T10:22:14.739Z,8.82
2023-05-25T10:24:27.820Z,8.70
2023-05-25T10:26:36.526Z,8.27
2023-05-25T10:28:41.088Z,9.20
2023-05-25T10:30:44.262Z,8.70
2023-05-25T10:32:48.919Z,7.88
2023-05-25T10:34:53.267Z,8.25
2023-05-25T10:36:57.402Z,8.50
2023-05-25T10:39:02.034Z,8.82
2023-05-25T10:41:05.676Z,8.77
2023-05-25T10:43:09.653Z,8.02
2023-05-25T10:45:13.015Z,8.60
2023-05-25T10:47:17.152Z,8.20
2023-05-25T10:49:28.357Z,8.02
2023-05-25T10:51:38.633Z,7.55
2023-05-25T10:53:45.832Z,7.82
2023-05-25T10:56:01.547Z,8.20
2023-05-25T10:58:13.186Z,8.77
2023-05-25T11:00:16.846Z,7.95
2023-05-25T11:02:23.363Z,7.88
2023-05-25T11:04:26.320Z,8.20
2023-05-25T11:07:08.292Z,8.07
2023-05-25T11:09:25.197Z,6.95
2023-05-25T11:12:03.513Z,7.43
2023-05-25T11:14:22.112Z,8.13
2023-05-25T11:16:36.314Z,7.68
2023-05-25T11:18:39.320Z,6.90
2023-05-25T11:20:42.160Z,7.70
2023-05-25T11:22:44.825Z,8.68
2023-05-25T11:24:48.176Z,7.07
2023-05-25T11:26:55.991Z,7.15
2023-05-25T11:28:59.872Z,7.63
2023-05-25T11:31:07.822Z,8.40
2023-05-25T11:33:11.040Z,7.22
2023-05-25T11:35:14.705Z,6.72
2023-05-25T11:37:21.090Z,7.45
2023-05-25T11:39:24.102Z,7.28
2023-05-25T11:41:26.849Z,6.88
2023-05-25T11:43:29.756Z,7.85
2023-05-25T11:45:34.439Z,7.28
2023-05-25T11:47:38.502Z,7.47
2023-05-25T11:49:44.179Z,7.68
2023-05-25T11:51:46.844Z,7.28
2023-05-25T11:53:49.759Z,6.93
2023-05-25T11:56:00.563Z,7.60
2023-05-25T11:58:10.444Z,8.02
2023-05-25T12:00:14.357Z,7.10
2023-05-25T12:02:17.174Z,8.00
2023-05-25T12:04:23.857Z,7.05
2023-05-25T12:06:28.535Z,6.75
2023-05-25T12:08:34.360Z,7.07
2023-05-25T12:10:50.637Z,6.97
2023-05-25T12:12:58.122Z,7.40
2023-05-25T12:15:00.839Z,6.63
2023-05-25T12:17:03.613Z,7.90
2023-05-25T12:19:07.538Z,7.13
2023-05-25T12:21:12.267Z,6.38
2023-05-25T12:23:15.094Z,6.68
2023-05-25T12:25:21.216Z,6.57
2023-05-25T12:27:24.023Z,7.80
2023-05-25T12:29:26.784Z,7.05
2023-05-25T12:31:31.496Z,6.55
2023-05-25T12:33:34.227Z,7.10
2023-05-25T12:35:46.797Z,7.60
2023-05-25T12:37:50.836Z,7.05
2023-05-25T12:39:53.461Z,6.57
2023-05-25T12:41:57.281Z,6.22
2023-05-25T12:44:00.644Z,7.05
2023-05-25T12:46:03.666Z,6.95
2023-05-25T12:48:06.544Z,7.35
2023-05-25T12:50:13.741Z,6.65
2023-05-25T12:52:35.214Z,7.07
2023-05-25T12:54:48.415Z,7.10
2023-05-25T12:56:57.263Z,7.45
2023-05-25T12:59:17.759Z,6.10
2023-05-25T13:01:20.375Z,7.20
2023-05-25T13:03:23.033Z,7.82
2023-05-25T13:05:26.828Z,7.13
2023-05-25T13:07:30.138Z,6.60
2023-05-25T13:09:33.696Z,6.28
2023-05-25T13:11:37.727Z,6.53
2023-05-25T13:13:40.640Z,7.53
2023-05-25T13:15:45.349Z,7.15
2023-05-25T13:17:48.543Z,6.90
2023-05-25T13:19:51.223Z,6.38
2023-05-25T13:21:55.946Z,6.55
2023-05-25T13:23:58.575Z,5.97
2023-05-25T13:26:01.165Z,6.18
2023-05-25T13:28:06.383Z,6.18
2023-05-25T13:30:11.773Z,7.10
2023-05-25T13:32:14.844Z,6.10
2023-05-25T13:34:17.671Z,6.10
2023-05-25T13:36:20.457Z,6.47
2023-05-25T13:38:23.070Z,6.25
2023-05-25T13:40:25.715Z,5.88
2023-05-25T13:42:28.300Z,6.30
2023-05-25T13:44:33.948Z,5.80
2023-05-25T13:46:37.773Z,5.55
2023-05-25T13:48:40.727Z,4.93
2023-05-25T13:50:45.064Z,4.78
2023-05-25T13:52:49.097Z,5.38
2023-05-25T13:54:51.794Z,5.68
2023-05-25T13:56:54.401Z,4.82
2023-05-25T13:58:57.081Z,5.65
2023-05-25T14:01:01.132Z,4.57
2023-05-25T14:03:03.917Z,5.18
2023-05-25T14:05:07.400Z,4.80
2023-05-25T14:07:10.007Z,4.50
2023-05-25T14:09:13.573Z,5.47
2023-05-25T14:11:18.361Z,3.90
2023-05-25T14:13:22.714Z,4.35
2023-05-25T14:15:25.845Z,4.55
2023-05-25T14:17:29.814Z,4.00
2023-05-25T14:19:33.066Z,4.05
2023-05-25T14:21:35.787Z,4.13
2023-05-25T14:23:38.362Z,4.07
2023-05-25T14:25:44.232Z,4.18
2023-05-25T14:27:47.011Z,4.22
2023-05-25T14:29:49.901Z,4.20
2023-05-25T14:31:52.809Z,4.15
2023-05-25T14:33:56.951Z,3.55
2023-05-25T14:35:59.531Z,3.67
2023-05-25T14:38:02.164Z,3.92
2023-05-25T14:40:05.497Z,4.47
2023-05-25T14:42:08.604Z,7.43
2023-05-25T14:44:11.256Z,4.07
2023-05-25T14:46:14.160Z,3.83
2023-05-25T14:48:18.008Z,3.97
2023-05-25T14:50:22.014Z,4.10
2023-05-25T14:52:24.656Z,3.78
2023-05-25T14:54:27.685Z,3.63
2023-05-25T14:56:30.640Z,3.97
2023-05-25T14:58:34.169Z,4.22
2023-05-25T15:00:36.840Z,4.78
2023-05-25T15:02:39.487Z,3.95
2023-05-25T15:04:42.243Z,3.88
2023-05-25T15:06:46.201Z,4.10
2023-05-25T15:08:48.828Z,4.32
2023-05-25T15:10:52.666Z,4.32
2023-05-25T15:12:55.285Z,4.25
2023-05-25T15:14:57.843Z,4.03
2023-05-25T15:17:00.597Z,4.78
2023-05-25T15:19:03.237Z,4.18
2023-05-25T15:21:06.213Z,4.25
2023-05-25T15:23:10.151Z,4.43
2023-05-25T15:25:16.860Z,4.30
2023-05-25T15:27:22.091Z,3.92
2023-05-25T15:29:24.753Z,4.15
2023-05-25T15:31:27.379Z,4.63
2023-05-25T15:33:39.900Z,4.30
2023-05-25T15:35:51.002Z,4.75
2023-05-25T15:37:53.643Z,4.85
2023-05-25T15:39:57.606Z,4.60
2023-05-25T15:42:00.193Z,4.22
2023-05-25T15:44:02.998Z,4.00
2023-05-25T15:46:05.661Z,4.32
2023-05-25T15:48:10.171Z,4.50
2023-05-25T15:50:12.959Z,4.57
2023-05-25T15:52:16.337Z,4.70
2023-05-25T15:54:18.950Z,4.50
2023-05-25T15:56:23.048Z,4.53
2023-05-25T15:58:25.618Z,4.70
2023-05-25T16:00:30.546Z,4.75
2023-05-25T16:02:33.435Z,4.80
2023-05-25T16:04:36.060Z,4.30
2023-05-25T16:06:39.062Z,4.30
2023-05-25T16:08:41.684Z,5.03
2023-05-25T16:10:44.531Z,4.90
2023-05-25T16:12:48.548Z,4.75
2023-05-25T16:14:51.147Z,4.60
2023-05-25T16:16:53.843Z,4.90
2023-05-25T16:18:56.608Z,4.80
2023-05-25T16:20:59.278Z,4.50
2023-05-25T16:23:02.592Z,4.93
2023-05-25T16:25:05.768Z,5.03
2023-05-25T16:27:08.401Z,5.15
2023-05-25T16:29:12.400Z,4.50
2023-05-25T16:31:15.647Z,4.53
2023-05-25T16:33:18.312Z,5.10
2023-05-25T16:35:21.077Z,5.35
2023-05-25T16:37:23.688Z,4.50
2023-05-25T16:39:26.269Z,4.55
2023-05-25T16:41:28.866Z,4.72
2023-05-25T16:43:31.483Z,4.65
2023-05-25T16:45:35.544Z,5.00
2023-05-25T16:47:38.201Z,5.00
2023-05-25T16:49:40.974Z,4.47
2023-05-25T16:51:43.545Z,5.15
2023-05-25T16:53:46.148Z,4.53
2023-05-25T16:55:48.783Z,5.25
2023-05-25T16:57:51.371Z,5.28
2023-05-25T16:59:54.260Z,4.75
2023-05-25T17:01:59.190Z,4.72
2023-05-25T17:04:01.991Z,5.30
2023-05-25T17:06:04.851Z,5.13
2023-05-25T17:08:07.457Z,4.82
2023-05-25T17:10:10.462Z,5.40
2023-05-25T17:12:13.137Z,4.80
2023-05-25T17:14:15.831Z,5.32
2023-05-25T17:16:18.503Z,5.35
2023-05-25T17:18:22.654Z,4.90
2023-05-25T17:20:25.339Z,4.80
2023-05-25T17:22:28.061Z,5.00
2023-05-25T17:24:31.106Z,4.80
2023-05-25T17:26:36.090Z,5.43
2023-05-25T17:28:38.724Z,5.22
2023-05-25T17:30:41.357Z,4.25
2023-05-25T17:32:43.990Z,5.00
2023-05-25T17:34:48.014Z,5.13
2023-05-25T17:36:50.625Z,5.32
2023-05-25T17:38:53.276Z,4.65
2023-05-25T17:40:55.902Z,4.68
2023-05-25T17:42:58.464Z,4.97
2023-05-25T17:45:01.219Z,4.43
2023-05-25T17:47:03.918Z,5.15
2023-05-25T17:49:06.528Z,5.05
2023-05-25T17:51:13.041Z,4.70
2023-05-25T17:53:16.054Z,4.90
2023-05-25T17:55:20.442Z,5.38
2023-05-25T17:57:23.066Z,5.13
2023-05-25T17:59:25.690Z,6.13
2023-05-25T18:01:28.418Z,4.88
2023-05-25T18:03:31.158Z,5.53
2023-05-25T18:05:33.808Z,5.35
2023-05-25T18:07:37.760Z,5.30
2023-05-25T18:09:40.350Z,5.35
2023-05-25T18:11:42.934Z,5.30
2023-05-25T18:13:45.674Z,5.05
2023-05-25T18:15:48.265Z,5.45
2023-05-25T18:17:50.910Z,4.88
2023-05-25T18:19:53.640Z,5.07
2023-05-25T18:21:56.317Z,5.03
2023-05-25T18:24:00.415Z,5.05
2023-05-25T18:26:04.596Z,5.65
2023-05-25T18:28:07.241Z,4.90
2023-05-25T18:30:10.817Z,5.00
2023-05-25T18:32:13.456Z,5.05
2023-05-25T18:34:16.185Z,4.57
2023-05-25T18:36:18.797Z,5.00
2023-05-25T18:38:21.467Z,5.10
2023-05-25T18:40:25.655Z,5.47
2023-05-25T18:42:28.280Z,4.90
2023-05-25T18:44:30.951Z,5.28
2023-05-25T18:46:33.590Z,4.97
2023-05-25T18:48:36.524Z,6.05
2023-05-25T18:50:40.149Z,6.38
2023-05-25T18:52:42.808Z,5.65
2023-05-25T18:54:46.192Z,5.82
2023-05-25T18:56:50.176Z,5.68
2023-05-25T18:58:54.708Z,6.43
2023-05-25T19:00:57.305Z,6.00
2023-05-25T19:02:59.973Z,6.15
2023-05-25T19:05:02.713Z,5.93
2023-05-25T19:07:05.624Z,6.63
2023-05-25T19:09:08.617Z,6.22
2023-05-25T19:11:11.236Z,6.18
2023-05-25T19:13:15.369Z,6.22
2023-05-25T19:15:18.051Z,8.77
2023-05-25T19:17:21.008Z,7.55
2023-05-25T19:19:23.712Z,6.97
2023-05-25T19:21:26.752Z,6.97
2023-05-25T19:23:29.402Z,6.88
2023-05-25T19:25:32.088Z,7.18
2023-05-25T19:27:34.775Z,6.05
2023-05-25T19:29:38.739Z,6.07
2023-05-25T19:31:41.382Z,5.72
2023-05-25T19:33:44.046Z,5.70
2023-05-25T19:35:46.778Z,6.57
2023-05-25T19:37:49.521Z,6.13
2023-05-25T19:39:52.115Z,6.05
2023-05-25T19:41:54.749Z,6.43
2023-05-25T19:43:57.349Z,6.63
2023-05-25T19:46:01.375Z,7.95
2023-05-25T19:48:04.132Z,9.02
2023-05-25T19:50:08.418Z,10.77
2023-05-25T19:52:11.106Z,10.20
2023-05-25T19:54:13.771Z,8.73
2023-05-25T19:56:16.373Z,8.05
2023-05-25T19:58:19.005Z,7.95
2023-05-25T20:00:26.708Z,13.35
2023-05-25T20:02:31.400Z,11.38
2023-05-25T20:04:34.179Z,7.95
2023-05-25T20:06:37.470Z,7.25
2023-05-25T20:08:40.090Z,6.72
2023-05-25T20:10:44.607Z,6.68
2023-05-25T20:12:47.194Z,6.70
2023-05-25T20:14:49.919Z,6.22
2023-05-25T20:16:54.320Z,6.60
2023-05-25T20:18:58.287Z,7.18
2023-05-25T20:21:00.864Z,6.47
2023-05-25T20:23:03.850Z,6.68
2023-05-25T20:25:07.199Z,7.35
2023-05-25T20:27:09.884Z,11.88
2023-05-25T20:29:12.496Z,8.75
2023-05-25T20:31:15.107Z,7.50
2023-05-25T20:33:17.893Z,8.30
2023-05-25T20:35:21.850Z,8.45
2023-05-25T20:37:24.575Z,7.10
2023-05-25T20:39:27.275Z,6.90
2023-05-25T20:41:31.742Z,7.63
2023-05-25T20:43:34.348Z,7.55
2023-05-25T20:45:38.487Z,8.32
2023-05-25T20:47:41.653Z,8.85
2023-05-25T20:49:44.248Z,9.40
2023-05-25T20:51:50.036Z,9.57
2023-05-25T20:53:52.737Z,10.48
2023-05-25T20:55:55.409Z,11.18
2023-05-25T20:57:59.676Z,13.35
2023-05-25T21:00:02.326Z,12.60
2023-05-25T21:02:05.698Z,14.85
2023-05-25T21:04:08.495Z,15.00
2023-05-25T21:06:11.174Z,15.07
2023-05-25T21:08:15.167Z,13.57
2023-05-25T21:10:17.881Z,12.63
2023-05-25T21:12:20.468Z,12.27
2023-05-25T21:14:23.098Z,12.02
2023-05-25T21:16:26.184Z,13.30
2023-05-25T21:18:28.805Z,13.15
2023-05-25T21:20:31.462Z,12.07
2023-05-25T21:22:34.111Z,11.57
2023-05-25T21:24:38.059Z,10.43
2023-05-25T21:26:41.005Z,9.27
2023-05-25T21:28:43.644Z,10.05
2023-05-25T21:30:46.254Z,11.40
2023-05-25T21:32:48.939Z,13.25
2023-05-25T21:34:52.729Z,11.25
2023-05-25T21:36:55.323Z,12.95
2023-05-25T21:38:57.943Z,12.75
2023-05-25T21:41:01.884Z,12.10
2023-05-25T21:43:04.956Z,12.02
2023-05-25T21:45:08.429Z,10.98
2023-05-25T21:47:11.148Z,10.82
2023-05-25T21:49:13.858Z,10.70
2023-05-25T21:51:16.467Z,11.32
2023-05-25T21:53:19.309Z,11.57
2023-05-25T21:55:22.048Z,11.00
2023-05-25T21:57:25.993Z,10.10
2023-05-25T21:59:28.634Z,10.02
2023-05-25T22:01:31.295Z,10.07
2023-05-25T22:03:33.984Z,9.70
2023-05-25T22:05:36.682Z,11.10
2023-05-25T22:07:39.271Z,10.00
2023-05-25T22:09:41.889Z,10.10
2023-05-25T22:11:44.555Z,9.20
2023-05-25T22:13:48.463Z,10.95
2023-05-25T22:15:51.189Z,9.60
2023-05-25T22:17:53.848Z,9.45
2023-05-25T22:20:07.345Z,9.73
2023-05-25T22:22:11.009Z,8.85
2023-05-25T22:24:13.610Z,8.90
2023-05-25T22:26:16.253Z,9.32
2023-05-25T22:28:18.867Z,8.52
2023-05-25T22:30:22.828Z,8.93
2023-05-25T22:32:26.867Z,8.57
2023-05-25T22:34:32.108Z,9.05
2023-05-25T22:36:34.737Z,8.65
2023-05-25T22:38:37.537Z,8.73
2023-05-25T22:40:40.160Z,8.48
2023-05-25T22:42:45.037Z,8.43
2023-05-25T22:44:49.217Z,8.27
2023-05-25T22:46:53.203Z,8.38
2023-05-25T22:48:55.838Z,7.97
2023-05-25T22:50:58.415Z,8.57
2023-05-25T22:53:01.075Z,7.53
2023-05-25T22:55:03.836Z,7.85
2023-05-25T22:57:07.035Z,8.25
2023-05-25T22:59:09.602Z,8.02
2023-05-25T23:01:12.203Z,8.85
2023-05-25T23:03:16.381Z,7.43
2023-05-25T23:05:19.042Z,6.50
2023-05-25T23:07:21.842Z,7.47
2023-05-25T23:09:24.477Z,7.50
2023-05-25T23:11:27.219Z,8.27
2023-05-25T23:13:29.895Z,7.45
2023-05-25T23:15:32.534Z,7.55
2023-05-25T23:17:35.483Z,7.90
2023-05-25T23:19:40.323Z,7.65
2023-05-25T23:21:42.950Z,7.72
2023-05-25T23:23:45.540Z,7.57
2023-05-25T23:25:48.311Z,7.72
2023-05-25T23:27:50.928Z,6.85
2023-05-25T23:29:56.121Z,7.50
2023-05-25T23:31:58.716Z,7.43
2023-05-25T23:34:01.400Z,7.68
2023-05-25T23:36:05.711Z,7.53
2023-05-25T23:38:08.316Z,7.40
2023-05-25T23:40:12.046Z,7.55
2023-05-25T23:42:15.479Z,7.55
2023-05-25T23:44:18.151Z,7.97
2023-05-25T23:46:20.851Z,6.55
2023-05-25T23:48:23.480Z,7.30
2023-05-25T23:50:26.131Z,8.60
2023-05-25T23:52:30.108Z,7.35
2023-05-25T23:54:32.732Z,9.00
2023-05-25T23:56:35.521Z,7.53
2023-05-25T23:58:38.093Z,7.00
